createdAt,value
2018-05-10T00:01:23.416Z,18.39
2018-05-10T00:03:51.055Z,18.44
2018-05-10T00:06:18.640Z,18.43
2018-05-10T00:08:46.252Z,18.48
2018-05-10T00:11:13.832Z,18.29
2018-05-10T00:13:41.416Z,18.34
2018-05-10T00:16:09.029Z,18.39
2018-05-10T00:18:36.688Z,18.43
2018-05-10T00:21:04.271Z,18.39
2018-05-10T00:23:31.908Z,18.38
2018-05-10T00:25:59.498Z,18.38
2018-05-10T00:28:27.121Z,18.37
2018-05-10T00:30:54.736Z,18.44
2018-05-10T00:33:22.331Z,18.45
2018-05-10T00:35:49.910Z,18.47
2018-05-10T00:38:17.533Z,18.51
2018-05-10T00:40:45.123Z,18.52
2018-05-10T00:43:12.713Z,18.52
2018-05-10T00:45:40.329Z,18.47
2018-05-10T00:48:07.918Z,18.45
2018-05-10T00:50:35.503Z,18.47
2018-05-10T00:53:03.143Z,18.44
2018-05-10T00:55:36.446Z,18.44
2018-05-10T00:58:04.094Z,18.43
2018-05-10T01:00:31.684Z,18.44
2018-05-10T01:02:59.309Z,18.47
2018-05-10T01:05:26.931Z,18.42
2018-05-10T01:07:54.530Z,18.41
2018-05-10T01:10:22.113Z,18.47
2018-05-10T01:12:49.734Z,18.47
2018-05-10T01:15:17.324Z,18.44
2018-05-10T01:17:44.946Z,18.48
2018-05-10T01:20:12.592Z,18.46
2018-05-10T01:22:40.185Z,18.36
2018-05-10T01:25:07.898Z,18.38
2018-05-10T01:27:35.528Z,18.43
2018-05-10T01:30:03.144Z,18.40
2018-05-10T01:32:30.728Z,18.39
2018-05-10T01:35:10.057Z,18.36
2018-05-10T01:37:37.635Z,18.33
2018-05-10T01:40:05.216Z,18.30
2018-05-10T01:42:32.852Z,18.34
2018-05-10T01:45:00.462Z,18.34
2018-05-10T01:47:28.037Z,18.37
2018-05-10T01:49:55.660Z,18.41
2018-05-10T01:52:23.240Z,18.38
2018-05-10T01:54:50.837Z,18.36
2018-05-10T01:57:18.444Z,18.28
2018-05-10T01:59:46.029Z,18.24
2018-05-10T02:02:13.616Z,18.20
2018-05-10T02:04:41.231Z,18.16
2018-05-10T02:07:08.826Z,18.13
2018-05-10T02:09:36.415Z,18.05
2018-05-10T02:12:04.083Z,18.03
2018-05-10T02:14:31.673Z,17.96
2018-05-10T02:16:59.265Z,17.89
2018-05-10T02:19:26.889Z,17.85
2018-05-10T02:21:54.476Z,17.88
2018-05-10T02:24:22.078Z,17.84
2018-05-10T02:26:49.708Z,17.78
2018-05-10T02:29:17.289Z,17.74
2018-05-10T02:31:44.879Z,17.73
2018-05-10T02:34:12.514Z,17.69
2018-05-10T02:36:40.106Z,17.68
2018-05-10T02:39:07.693Z,17.64
2018-05-10T02:41:35.351Z,17.64
2018-05-10T02:44:02.939Z,17.68
2018-05-10T02:46:30.525Z,17.74
2018-05-10T02:48:58.147Z,17.77
2018-05-10T02:51:25.723Z,17.73
2018-05-10T02:53:53.317Z,17.72
2018-05-10T02:56:20.949Z,17.78
2018-05-10T02:58:48.531Z,17.78
2018-05-10T03:01:16.145Z,17.78
2018-05-10T03:03:43.786Z,17.83
2018-05-10T03:06:11.434Z,17.80
2018-05-10T03:08:39.025Z,17.78
2018-05-10T03:11:06.666Z,17.79
2018-05-10T03:13:34.257Z,17.77
2018-05-10T03:16:01.859Z,17.82
2018-05-10T03:18:29.533Z,17.87
2018-05-10T03:20:57.129Z,17.89
2018-05-10T03:23:24.719Z,17.92
2018-05-10T03:25:52.396Z,17.92
2018-05-10T03:28:20.005Z,17.94
2018-05-10T03:30:47.607Z,17.94
2018-05-10T03:33:15.285Z,17.91
2018-05-10T03:35:42.859Z,17.87
2018-05-10T03:38:10.448Z,17.82
2018-05-10T03:40:38.065Z,17.87
2018-05-10T03:43:05.657Z,17.77
2018-05-10T03:45:33.236Z,17.66
2018-05-10T03:48:00.860Z,17.66
2018-05-10T03:50:28.449Z,17.59
2018-05-10T03:52:56.052Z,17.61
2018-05-10T03:55:23.690Z,17.65
2018-05-10T03:57:51.271Z,17.69
2018-05-10T04:00:18.870Z,17.74
2018-05-10T04:06:15.135Z,17.69
2018-05-10T04:08:54.441Z,17.62
2018-05-10T04:11:25.802Z,17.64
2018-05-10T04:13:53.399Z,17.65
2018-05-10T04:16:21.019Z,17.72
2018-05-10T04:18:48.653Z,17.73
2018-05-10T04:21:16.249Z,17.80
2018-05-10T04:23:43.862Z,17.80
2018-05-10T04:26:11.444Z,17.81
2018-05-10T04:28:39.056Z,17.92
2018-05-10T04:31:06.671Z,17.92
2018-05-10T04:33:34.255Z,17.81
2018-05-10T04:36:01.840Z,17.54
2018-05-10T04:38:29.672Z,17.62
2018-05-10T04:40:57.254Z,17.72
2018-05-10T04:43:24.857Z,17.74
2018-05-10T04:45:52.506Z,17.80
2018-05-10T04:48:20.100Z,17.88
2018-05-10T04:50:47.705Z,17.90
2018-05-10T04:53:15.336Z,17.96
2018-05-10T04:55:42.930Z,18.07
2018-05-10T04:58:10.516Z,18.06
2018-05-10T05:00:38.137Z,18.16
2018-05-10T05:03:05.727Z,18.20
2018-05-10T05:05:33.316Z,18.20
2018-05-10T05:08:00.963Z,18.09
2018-05-10T05:10:28.546Z,18.14
2018-05-10T05:12:56.180Z,18.13
2018-05-10T05:15:23.846Z,18.04
2018-05-10T05:17:52.420Z,18.07
2018-05-10T05:20:20.007Z,18.01
2018-05-10T05:22:47.629Z,18.20
2018-05-10T05:25:15.213Z,18.25
2018-05-10T05:27:42.813Z,18.38
2018-05-10T05:30:10.437Z,18.43
2018-05-10T05:32:38.054Z,18.39
2018-05-10T05:35:05.635Z,18.34
2018-05-10T05:37:33.267Z,18.35
2018-05-10T05:40:00.864Z,18.40
2018-05-10T05:42:28.446Z,18.40
2018-05-10T05:44:56.064Z,18.49
2018-05-10T05:47:23.643Z,18.68
2018-05-10T05:49:51.240Z,18.82
2018-05-10T05:52:18.860Z,18.84
2018-05-10T05:54:46.447Z,19.00
2018-05-10T05:57:14.043Z,19.39
2018-05-10T05:59:41.669Z,20.01
2018-05-10T06:02:09.243Z,20.34
2018-05-10T06:04:36.872Z,20.63
2018-05-10T06:07:04.496Z,21.74
2018-05-10T06:09:32.088Z,22.63
2018-05-10T06:11:59.671Z,24.38
2018-05-10T06:14:27.279Z,24.48
2018-05-10T06:16:54.865Z,24.44
2018-05-10T06:19:22.452Z,23.59
2018-05-10T06:21:50.112Z,24.29
2018-05-10T06:24:17.690Z,25.18
2018-05-10T06:26:45.275Z,25.23
2018-05-10T06:29:13.040Z,25.64
2018-05-10T06:31:40.620Z,25.27
2018-05-10T06:34:08.203Z,24.22
2018-05-10T06:36:35.872Z,22.24
2018-05-10T06:39:03.543Z,22.12
2018-05-10T06:41:31.203Z,22.82
2018-05-10T06:43:58.806Z,23.43
2018-05-10T06:46:26.387Z,23.97
2018-05-10T06:48:53.958Z,24.40
2018-05-10T06:51:21.587Z,24.16
2018-05-10T06:53:49.172Z,24.98
2018-05-10T06:56:16.761Z,26.14
2018-05-10T06:58:44.369Z,27.15
2018-05-10T07:01:11.951Z,27.55
2018-05-10T07:03:39.541Z,27.82
2018-05-10T07:06:07.163Z,27.76
2018-05-10T07:08:35.177Z,27.40
2018-05-10T07:11:02.821Z,27.00
2018-05-10T07:13:30.422Z,25.56
2018-05-10T07:15:57.992Z,24.76
2018-05-10T07:18:25.668Z,24.20
2018-05-10T07:20:53.296Z,23.88
2018-05-10T07:23:20.873Z,23.55
2018-05-10T07:25:48.452Z,23.44
2018-05-10T07:28:16.064Z,23.46
2018-05-10T07:30:43.646Z,23.21
2018-05-10T07:33:11.214Z,23.31
2018-05-10T07:35:38.908Z,23.07
2018-05-10T07:38:06.739Z,23.58
2018-05-10T07:40:34.376Z,24.62
2018-05-10T07:43:02.013Z,25.72
2018-05-10T07:45:29.677Z,27.35
2018-05-10T07:47:57.304Z,27.98
2018-05-10T07:50:24.923Z,27.73
2018-05-10T07:52:52.508Z,27.18
2018-05-10T07:55:20.100Z,26.26
2018-05-10T07:57:47.725Z,26.29
2018-05-10T08:00:15.311Z,25.54
2018-05-10T08:02:42.896Z,26.15
2018-05-10T08:05:10.523Z,27.50
2018-05-10T08:07:38.108Z,28.16
2018-05-10T08:10:05.804Z,28.72
2018-05-10T08:12:33.338Z,29.27
2018-05-10T08:15:00.906Z,28.47
2018-05-10T08:17:28.503Z,27.42
2018-05-10T08:19:56.407Z,26.60
2018-05-10T08:22:24.785Z,25.86
2018-05-10T08:24:52.389Z,25.98
2018-05-10T08:27:20.002Z,26.04
2018-05-10T08:29:49.603Z,25.25
2018-05-10T08:32:17.200Z,24.70
2018-05-10T08:34:44.827Z,24.06
2018-05-10T08:37:12.408Z,24.10
2018-05-10T08:39:39.991Z,23.84
2018-05-10T08:42:07.611Z,23.93
2018-05-10T08:44:35.195Z,24.21
2018-05-10T08:47:02.845Z,24.29
2018-05-10T08:49:30.520Z,24.54
2018-05-10T08:51:58.170Z,24.59
2018-05-10T08:54:25.718Z,24.61
2018-05-10T08:56:53.331Z,24.89
2018-05-10T08:59:20.923Z,24.99
2018-05-10T09:01:48.475Z,25.04
2018-05-10T09:04:16.112Z,24.77
2018-05-10T09:06:43.682Z,24.24
2018-05-10T09:09:11.299Z,24.08
2018-05-10T09:11:38.872Z,23.59
2018-05-10T09:14:06.438Z,23.35
2018-05-10T09:16:34.040Z,23.32
2018-05-10T09:19:01.620Z,23.36
2018-05-10T09:21:29.209Z,23.36
2018-05-10T09:23:56.829Z,23.41
2018-05-10T09:26:24.413Z,23.35
2018-05-10T09:28:52.020Z,23.33
2018-05-10T09:31:19.637Z,23.47
2018-05-10T09:33:47.253Z,23.80
2018-05-10T09:36:14.841Z,24.02
2018-05-10T09:38:42.465Z,24.13
2018-05-10T09:41:10.124Z,23.81
2018-05-10T09:43:37.716Z,23.05
2018-05-10T09:46:05.432Z,22.54
2018-05-10T09:48:32.972Z,21.86
2018-05-10T09:51:00.560Z,21.14
2018-05-10T09:53:28.179Z,21.25
2018-05-10T09:55:55.771Z,21.14
2018-05-10T09:58:23.350Z,21.00
2018-05-10T10:00:50.965Z,21.00
2018-05-10T10:03:18.557Z,21.11
2018-05-10T10:05:46.134Z,21.23
2018-05-10T10:08:13.772Z,21.39
2018-05-10T10:10:41.348Z,21.51
2018-05-10T10:13:08.928Z,21.80
2018-05-10T10:15:36.621Z,21.98
2018-05-10T10:18:04.199Z,22.13
2018-05-10T10:20:31.771Z,22.29
2018-05-10T10:22:59.393Z,22.36
2018-05-10T10:25:26.975Z,22.53
2018-05-10T10:27:54.559Z,22.36
2018-05-10T10:30:22.174Z,22.61
2018-05-10T10:32:49.756Z,22.73
2018-05-10T10:35:17.353Z,23.07
2018-05-10T10:37:44.997Z,23.19
2018-05-10T10:40:12.648Z,23.91
2018-05-10T10:42:40.211Z,24.94
2018-05-10T10:45:07.820Z,26.59
2018-05-10T10:47:35.417Z,26.00
2018-05-10T10:50:03.007Z,25.53
2018-05-10T10:52:30.631Z,24.20
2018-05-10T10:54:58.212Z,23.79
2018-05-10T10:57:25.796Z,24.15
2018-05-10T10:59:53.434Z,23.93
2018-05-10T11:02:21.032Z,24.11
2018-05-10T11:04:48.752Z,24.48
2018-05-10T11:07:16.415Z,24.43
2018-05-10T11:09:43.997Z,24.22
2018-05-10T11:12:11.580Z,23.63
2018-05-10T11:14:39.230Z,23.27
2018-05-10T11:17:06.852Z,23.42
2018-05-10T11:19:34.457Z,23.66
2018-05-10T11:22:02.081Z,23.69
2018-05-10T11:24:29.665Z,23.89
2018-05-10T11:26:57.348Z,23.17
2018-05-10T11:29:25.077Z,23.52
2018-05-10T11:31:52.660Z,24.03
2018-05-10T11:34:20.257Z,24.02
2018-05-10T11:36:47.956Z,23.68
2018-05-10T11:39:15.538Z,22.54
2018-05-10T11:41:43.130Z,22.51
2018-05-10T11:44:10.781Z,21.66
2018-05-10T11:46:38.413Z,21.29
2018-05-10T11:49:06.017Z,20.74
2018-05-10T11:51:33.729Z,20.90
2018-05-10T11:54:01.314Z,21.22
2018-05-10T11:56:28.925Z,21.58
2018-05-10T11:58:56.540Z,21.57
2018-05-10T12:01:24.114Z,22.31
2018-05-10T12:03:51.679Z,22.23
2018-05-10T12:06:19.351Z,22.72
2018-05-10T12:08:46.948Z,22.67
2018-05-10T12:11:14.532Z,23.30
2018-05-10T12:13:42.150Z,23.87
2018-05-10T12:16:09.754Z,24.61
2018-05-10T12:18:37.337Z,26.04
2018-05-10T12:21:04.936Z,26.63
2018-05-10T12:23:32.515Z,26.24
2018-05-10T12:26:00.095Z,25.06
2018-05-10T12:28:27.716Z,24.81
2018-05-10T12:30:55.334Z,24.41
2018-05-10T12:33:22.913Z,25.37
2018-05-10T12:35:50.530Z,26.06
2018-05-10T12:38:18.105Z,25.38
2018-05-10T12:40:45.677Z,25.23
2018-05-10T12:43:13.281Z,24.52
2018-05-10T12:45:40.861Z,24.35
2018-05-10T12:48:08.438Z,24.12
2018-05-10T12:50:36.082Z,23.89
2018-05-10T12:53:03.664Z,24.04
2018-05-10T12:55:31.261Z,24.04
2018-05-10T12:57:58.912Z,24.34
2018-05-10T13:00:26.499Z,24.23
2018-05-10T13:02:54.561Z,24.35
2018-05-10T13:05:22.095Z,24.22
2018-05-10T13:07:49.685Z,24.62
2018-05-10T13:10:17.272Z,24.79
2018-05-10T13:12:44.897Z,24.21
2018-05-10T13:15:12.484Z,23.77
2018-05-10T13:17:40.071Z,23.81
2018-05-10T13:20:07.700Z,23.44
2018-05-10T13:22:35.278Z,22.98
2018-05-10T13:25:02.857Z,22.67
2018-05-10T13:27:30.473Z,22.55
2018-05-10T13:29:58.039Z,22.15
2018-05-10T13:32:25.653Z,22.25
2018-05-10T13:34:53.267Z,22.00
2018-05-10T13:37:20.849Z,22.23
2018-05-10T13:39:48.425Z,22.32
2018-05-10T13:42:16.041Z,22.24
2018-05-10T13:44:43.619Z,22.17
2018-05-10T13:47:11.394Z,22.00
2018-05-10T13:49:38.869Z,21.63
2018-05-10T13:52:06.444Z,21.59
2018-05-10T13:54:34.027Z,21.22
2018-05-10T13:57:01.641Z,21.09
2018-05-10T13:59:29.222Z,21.04
2018-05-10T14:01:56.790Z,20.93
2018-05-10T14:04:24.450Z,20.77
2018-05-10T14:06:52.024Z,20.93
2018-05-10T14:09:19.608Z,20.52
2018-05-10T14:11:47.213Z,20.49
2018-05-10T14:14:14.772Z,20.30
2018-05-10T14:16:42.343Z,20.15
2018-05-10T14:19:09.959Z,20.02
2018-05-10T14:21:37.554Z,20.03
2018-05-10T14:24:05.111Z,19.81
2018-05-10T14:26:32.757Z,19.73
2018-05-10T14:29:00.332Z,19.75
2018-05-10T14:31:27.888Z,19.57
2018-05-10T14:33:55.504Z,19.41
2018-05-10T14:36:23.090Z,19.44
2018-05-10T14:38:50.800Z,19.42
2018-05-10T14:41:18.444Z,19.40
2018-05-10T14:43:46.001Z,19.43
2018-05-10T14:46:13.620Z,19.42
2018-05-10T14:48:41.228Z,19.40
2018-05-10T14:51:08.797Z,19.50
2018-05-10T14:53:36.424Z,19.46
2018-05-10T14:56:04.033Z,19.53
2018-05-10T14:58:31.685Z,19.58
2018-05-10T15:00:59.277Z,19.72
2018-05-10T15:03:26.892Z,19.62
2018-05-10T15:05:54.483Z,19.74
2018-05-10T15:08:22.152Z,19.84
2018-05-10T15:10:49.789Z,19.95
2018-05-10T15:13:17.380Z,19.90
2018-05-10T15:15:44.943Z,19.78
2018-05-10T15:18:12.545Z,19.56
2018-05-10T15:20:40.105Z,19.06
2018-05-10T15:23:07.685Z,18.87
2018-05-10T15:25:35.286Z,18.59
2018-05-10T15:28:02.859Z,18.41
2018-05-10T15:30:30.429Z,18.36
2018-05-10T15:32:58.082Z,18.11
2018-05-10T15:35:25.652Z,18.09
2018-05-10T15:37:53.229Z,18.10
2018-05-10T15:40:20.888Z,17.98
2018-05-10T15:42:48.473Z,17.76
2018-05-10T15:45:16.058Z,17.86
2018-05-10T15:47:43.677Z,17.79
2018-05-10T15:50:11.427Z,17.67
2018-05-10T15:52:38.988Z,17.57
2018-05-10T15:55:06.617Z,17.48
2018-05-10T15:57:34.281Z,17.46
2018-05-10T16:00:01.873Z,17.35
2018-05-10T16:02:29.485Z,17.30
2018-05-10T16:04:57.060Z,17.35
2018-05-10T16:07:24.645Z,17.35
2018-05-10T16:09:52.485Z,17.37
2018-05-10T16:12:20.073Z,17.40
2018-05-10T16:14:47.843Z,17.38
2018-05-10T16:17:15.486Z,17.30
2018-05-10T16:19:43.068Z,17.18
2018-05-10T16:22:10.661Z,17.20
2018-05-10T16:24:38.269Z,17.25
2018-05-10T16:27:05.867Z,17.24
2018-05-10T16:29:33.444Z,17.25
2018-05-10T16:32:01.178Z,17.27
2018-05-10T16:34:29.005Z,17.29
2018-05-10T16:36:56.575Z,17.29
2018-05-10T16:39:24.219Z,17.26
2018-05-10T16:41:52.021Z,17.29
2018-05-10T16:44:19.752Z,17.30
2018-05-10T16:46:47.543Z,17.24
2018-05-10T16:49:15.297Z,17.22
2018-05-10T16:51:42.886Z,17.21
2018-05-10T16:54:10.498Z,17.24
2018-05-10T16:56:38.194Z,17.28
2018-05-10T16:59:05.852Z,17.25
2018-05-10T17:01:33.534Z,17.22
2018-05-10T17:04:01.196Z,17.20
2018-05-10T17:06:28.785Z,17.17
2018-05-10T17:08:56.414Z,17.15
2018-05-10T17:11:24.312Z,17.13
2018-05-10T17:13:51.879Z,17.07
2018-05-10T17:16:19.710Z,17.01
2018-05-10T17:18:47.298Z,17.01
2018-05-10T17:21:14.883Z,16.82
2018-05-10T17:23:42.485Z,16.81
2018-05-10T17:26:10.045Z,16.84
2018-05-10T17:28:37.804Z,16.89
2018-05-10T17:31:05.463Z,16.95
2018-05-10T17:33:33.131Z,16.99
2018-05-10T17:36:00.803Z,16.97
2018-05-10T17:38:28.468Z,16.90
2018-05-10T17:40:56.037Z,16.90
2018-05-10T17:43:23.611Z,16.92
2018-05-10T17:45:51.220Z,16.97
2018-05-10T17:48:18.858Z,16.99
2018-05-10T17:50:46.391Z,16.96
2018-05-10T17:53:14.029Z,17.00
2018-05-10T17:55:41.608Z,16.98
2018-05-10T17:58:09.186Z,17.01
2018-05-10T18:00:37.095Z,17.01
2018-05-10T18:03:04.687Z,17.02
2018-05-10T18:05:32.272Z,16.99
2018-05-10T18:07:59.908Z,16.95
2018-05-10T18:10:27.478Z,16.85
2018-05-10T18:12:55.059Z,16.80
2018-05-10T18:15:22.789Z,16.85
2018-05-10T18:17:50.370Z,16.89
2018-05-10T18:20:17.943Z,16.80
2018-05-10T18:22:45.561Z,16.82
2018-05-10T18:25:13.152Z,16.83
2018-05-10T18:27:40.744Z,16.86
2018-05-10T18:30:08.359Z,16.86
2018-05-10T18:32:35.924Z,16.84
2018-05-10T18:35:03.504Z,16.69
2018-05-10T18:37:31.145Z,16.71
2018-05-10T18:39:58.732Z,16.69
2018-05-10T18:42:26.565Z,16.70
2018-05-10T18:44:54.207Z,16.61
2018-05-10T18:47:21.800Z,16.62
2018-05-10T18:49:49.386Z,16.56
2018-05-10T18:52:17.015Z,16.56
2018-05-10T18:54:44.673Z,16.56
2018-05-10T18:57:12.218Z,16.55
2018-05-10T18:59:39.833Z,16.55
2018-05-10T19:02:07.424Z,16.57
2018-05-10T19:04:35.018Z,16.57
2018-05-10T19:07:02.683Z,16.55
2018-05-10T19:09:30.271Z,16.51
2018-05-10T19:11:57.869Z,16.51
2018-05-10T19:14:25.492Z,16.50
2018-05-10T19:16:54.029Z,16.51
2018-05-10T19:19:21.623Z,16.49
2018-05-10T19:21:49.239Z,16.53
2018-05-10T19:24:16.814Z,16.51
2018-05-10T19:26:44.402Z,16.48
2018-05-10T19:29:12.298Z,16.47
2018-05-10T19:31:39.913Z,16.41
2018-05-10T19:34:07.496Z,16.37
2018-05-10T19:36:35.143Z,16.44
2018-05-10T19:39:02.722Z,16.38
2018-05-10T19:41:30.314Z,16.40
2018-05-10T19:43:57.928Z,16.41
2018-05-10T19:46:25.515Z,16.38
2018-05-10T19:48:53.113Z,16.35
2018-05-10T19:51:20.749Z,16.31
2018-05-10T19:53:48.348Z,16.27
2018-05-10T19:56:15.941Z,16.27
2018-05-10T19:58:43.560Z,16.26
2018-05-10T20:01:11.134Z,16.25
2018-05-10T20:03:38.724Z,16.27
2018-05-10T20:06:06.336Z,16.21
2018-05-10T20:08:33.969Z,16.17
2018-05-10T20:11:01.540Z,16.13
2018-05-10T20:13:29.161Z,16.15
2018-05-10T20:15:56.754Z,16.08
2018-05-10T20:18:24.331Z,16.07
2018-05-10T20:20:51.943Z,16.11
2018-05-10T20:23:19.523Z,16.13
2018-05-10T20:25:47.103Z,16.11
2018-05-10T20:28:14.732Z,16.06
2018-05-10T20:33:10.682Z,16.11
2018-05-10T20:35:38.312Z,16.11
2018-05-10T20:38:05.901Z,16.08
2018-05-10T20:40:33.486Z,16.08
2018-05-10T20:43:01.147Z,16.08
2018-05-10T20:45:28.727Z,16.07
2018-05-10T20:47:57.100Z,16.11
2018-05-10T20:50:24.718Z,16.10
2018-05-10T20:52:52.331Z,16.10
2018-05-10T20:55:19.913Z,16.13
2018-05-10T20:57:47.520Z,16.14
2018-05-10T21:00:15.144Z,16.15
2018-05-10T21:02:42.732Z,16.18
2018-05-10T21:05:10.364Z,16.12
2018-05-10T21:07:37.948Z,16.08
2018-05-10T21:10:05.571Z,16.09
2018-05-10T21:12:41.057Z,16.08
2018-05-10T21:15:08.657Z,16.07
2018-05-10T21:17:36.265Z,16.02
2018-05-10T21:20:03.971Z,16.03
2018-05-10T21:22:32.597Z,15.95
2018-05-10T21:25:00.193Z,15.99
2018-05-10T21:27:27.825Z,16.06
2018-05-10T21:29:55.429Z,16.10
2018-05-10T21:32:23.033Z,16.10
2018-05-10T21:34:50.688Z,16.12
2018-05-10T21:37:18.377Z,16.08
2018-05-10T21:39:45.977Z,16.09
2018-05-10T21:42:13.623Z,16.07
2018-05-10T21:44:41.266Z,16.08
2018-05-10T21:47:08.855Z,16.12
2018-05-10T21:49:48.184Z,16.14
2018-05-10T21:52:15.776Z,16.10
2018-05-10T21:54:43.376Z,16.07
2018-05-10T21:57:11.005Z,16.03
2018-05-10T21:59:38.597Z,16.08
2018-05-10T22:02:06.223Z,16.13
2018-05-10T22:04:33.841Z,16.15
2018-05-10T22:07:01.481Z,16.10
2018-05-10T22:09:29.094Z,16.07
2018-05-10T22:11:56.728Z,16.01
2018-05-10T22:14:24.361Z,16.03
2018-05-10T22:16:51.970Z,16.04
2018-05-10T22:19:19.584Z,16.03
2018-05-10T22:21:47.192Z,16.05
2018-05-10T22:24:14.806Z,15.97
2018-05-10T22:26:42.460Z,16.00
2018-05-10T22:29:10.055Z,15.98
2018-05-10T22:31:37.662Z,16.04
2018-05-10T22:34:05.313Z,15.98
2018-05-10T22:36:32.902Z,15.94
2018-05-10T22:39:04.097Z,15.90
2018-05-10T22:41:31.718Z,15.95
2018-05-10T22:43:59.378Z,15.83
2018-05-10T22:46:27.006Z,15.89
2018-05-10T22:48:54.590Z,15.90
2018-05-10T22:51:23.105Z,15.90
2018-05-10T22:53:50.744Z,15.98
2018-05-10T22:56:18.365Z,15.99
2018-05-10T22:58:45.958Z,15.99
2018-05-10T23:01:13.676Z,16.02
2018-05-10T23:03:41.313Z,16.05
2018-05-10T23:06:11.225Z,16.14
2018-05-10T23:08:38.880Z,16.16
2018-05-10T23:11:06.487Z,16.20
2018-05-10T23:13:34.106Z,16.15
2018-05-10T23:16:01.753Z,16.09
2018-05-10T23:18:29.357Z,16.13
2018-05-10T23:20:56.974Z,16.16
2018-05-10T23:23:24.633Z,16.18
2018-05-10T23:25:52.228Z,16.09
2018-05-10T23:28:19.849Z,16.13
2018-05-10T23:30:47.501Z,16.13
2018-05-10T23:33:15.099Z,16.05
2018-05-10T23:35:42.694Z,16.04
2018-05-10T23:38:10.312Z,16.10
2018-05-10T23:40:37.907Z,16.09
2018-05-10T23:43:05.501Z,15.99
2018-05-10T23:45:33.136Z,15.97
2018-05-10T23:48:00.775Z,15.95
2018-05-10T23:50:28.366Z,15.90
2018-05-10T23:52:56.006Z,15.86
2018-05-10T23:55:23.641Z,15.82
2018-05-10T23:57:51.244Z,15.72
